Time;durP1;ratioP1;P1;durP2;ratioP2;P2;SDS_P1;SDS_P2;PMS_P1;PMS_P2;Temp;Humidity;BMP_temperature;BMP_pressure;BME280_temperature;BME280_humidity;BME280_pressure;Samples;Min_cycle;Max_cycle;Signal;HPM_P1;HPM_P2
2023/03/10 04:01:38;;;;;;;0.38;0.30;;;14.00;47.20;;;;;;5344432;23;46199;-58
2023/03/10 04:04:04;;;;;;;0.40;0.30;;;13.90;47.20;;;;;;4919551;28;45426;-58
2023/03/10 04:06:29;;;;;;;0.27;0.27;;;14.00;47.20;;;;;;4923360;28;45579;-59
2023/03/10 04:08:55;;;;;;;0.23;0.20;;;14.00;47.20;;;;;;4921159;28;45576;-57
2023/03/10 04:11:21;;;;;;;0.60;0.20;;;14.00;47.20;;;;;;4911717;28;46126;-60
2023/03/10 04:13:46;;;;;;;0.40;0.20;;;14.00;47.20;;;;;;4874229;28;45305;-56
2023/03/10 04:16:12;;;;;;;0.20;0.20;;;14.00;47.20;;;;;;4907423;28;46387;-59
2023/03/10 04:18:37;;;;;;;0.33;0.27;;;14.00;47.20;;;;;;4908529;28;45385;-61
2023/03/10 04:21:03;;;;;;;0.25;0.25;;;14.00;47.20;;;;;;4906257;28;45326;-55
2023/03/10 04:23:28;;;;;;;0.30;0.30;;;14.00;47.20;;;;;;4893603;28;45069;-56
2023/03/10 04:25:54;;;;;;;0.47;0.30;;;14.00;47.20;;;;;;4907242;28;45799;-57
2023/03/10 04:28:20;;;;;;;0.20;0.20;;;14.00;47.20;;;;;;4907926;28;45849;-54
2023/03/10 04:30:46;;;;;;;0.20;0.20;;;14.00;47.20;;;;;;4907853;28;45250;-58
2023/03/10 04:33:12;;;;;;;0.20;0.20;;;14.00;47.10;;;;;;4908111;28;45365;-58
2023/03/10 04:35:39;;;;;;;0.27;0.20;;;14.00;47.10;;;;;;4890198;28;46906;-60
2023/03/10 04:38:05;;;;;;;0.30;0.30;;;14.00;47.10;;;;;;4910876;28;45477;-57
2023/03/10 04:40:30;;;;;;;0.20;0.20;;;14.00;47.20;;;;;;4908728;28;45336;-57
2023/03/10 04:42:56;;;;;;;0.20;0.20;;;14.00;47.10;;;;;;4905861;28;45525;-56
2023/03/10 04:45:21;;;;;;;0.20;0.20;;;14.00;47.10;;;;;;4911052;28;45282;-58
2023/03/10 04:47:47;;;;;;;0.20;0.20;;;14.00;47.10;;;;;;4903759;28;45511;-57
2023/03/10 04:50:16;;;;;;;0.30;0.30;;;14.00;47.10;;;;;;4908274;28;45284;-58
2023/03/10 04:52:45;;;;;;;0.35;0.30;;;14.00;47.10;;;;;;4886981;28;45775;-57
2023/03/10 04:55:11;;;;;;;0.25;0.20;;;14.00;47.10;;;;;;4906188;28;45978;-58
2023/03/10 04:57:37;;;;;;;0.40;0.30;;;14.00;47.10;;;;;;4904517;28;45500;-59
2023/03/10 05:00:06;;;;;;;0.30;0.30;;;14.00;47.10;;;;;;4891681;28;45160;-58
2023/03/10 05:02:32;;;;;;;0.30;0.30;;;14.00;47.10;;;;;;4900986;28;44966;-58
2023/03/10 05:05:01;;;;;;;0.50;0.25;;;14.00;47.10;;;;;;4906468;28;45359;-57
2023/03/10 05:07:27;;;;;;;0.20;0.20;;;14.00;47.20;;;;;;4904731;28;45641;-58
2023/03/10 05:09:53;;;;;;;0.30;0.30;;;14.00;47.10;;;;;;4905443;28;46004;-58
2023/03/10 05:12:18;;;;;;;0.70;0.20;;;14.00;47.10;;;;;;4892856;28;45391;-55
2023/03/10 05:14:44;;;;;;;0.30;0.30;;;14.00;47.10;;;;;;4907059;28;45402;-54
2023/03/10 05:17:10;;;;;;;0.20;0.20;;;14.00;47.10;;;;;;4887657;28;45384;-58
2023/03/10 05:19:35;;;;;;;0.20;0.20;;;14.00;47.10;;;;;;4905632;28;44960;-58
2023/03/10 05:22:02;;;;;;;0.28;0.28;;;14.00;47.10;;;;;;4906282;28;44722;-58
2023/03/10 05:24:27;;;;;;;0.20;0.20;;;14.00;46.80;;;;;;4911006;28;46433;-56
2023/03/10 05:26:53;;;;;;;0.17;0.17;;;14.00;47.10;;;;;;4906587;28;45016;-57
2023/03/10 05:29:19;;;;;;;0.38;0.30;;;14.00;47.10;;;;;;4902663;28;45250;-56
2023/03/10 05:31:45;;;;;;;0.40;0.20;;;14.00;47.10;;;;;;4892164;28;45468;-56
2023/03/10 05:34:12;;;;;;;0.20;0.20;;;14.00;47.10;;;;;;4907713;28;46463;-57
2023/03/10 05:36:38;;;;;;;0.30;0.30;;;14.00;47.20;;;;;;4905994;28;45372;-57
2023/03/10 05:39:05;;;;;;;0.20;0.20;;;14.00;47.10;;;;;;4905189;28;44760;-57
2023/03/10 05:41:31;;;;;;;0.20;0.20;;;14.00;47.10;;;;;;4901294;28;45304;-58
2023/03/10 05:43:56;;;;;;;0.30;0.30;;;14.00;47.10;;;;;;4904955;28;46856;-59
2023/03/10 05:46:22;;;;;;;0.30;0.30;;;14.00;47.10;;;;;;4906599;28;45523;-57
2023/03/10 05:48:48;;;;;;;0.30;0.20;;;14.00;47.10;;;;;;4907484;28;45538;-58
2023/03/10 05:51:13;;;;;;;0.28;0.28;;;14.00;47.10;;;;;;4907723;28;45292;-57
2023/03/10 05:53:39;;;;;;;0.40;0.20;;;14.00;47.10;;;;;;4902012;28;45436;-60
2023/03/10 05:56:09;;;;;;;0.30;0.30;;;14.00;47.10;;;;;;4907482;28;45560;-56
2023/03/10 05:58:35;;;;;;;0.50;0.20;;;14.00;47.10;;;;;;4905677;28;45681;-57
2023/03/10 06:01:01;;;;;;;0.40;0.30;;;14.00;47.20;;;;;;4901134;28;45403;-58
2023/03/10 06:03:28;;;;;;;0.20;0.20;;;14.00;47.10;;;;;;4890460;28;45569;-58
2023/03/10 06:05:55;;;;;;;0.20;0.20;;;14.00;47.20;;;;;;4907710;28;45543;-58
2023/03/10 06:08:22;;;;;;;0.20;0.20;;;14.00;47.10;;;;;;4909209;28;44930;-58
2023/03/10 06:10:47;;;;;;;0.30;0.20;;;14.00;47.10;;;;;;4905657;28;45047;-59
2023/03/10 06:13:13;;;;;;;0.47;0.30;;;14.00;47.10;;;;;;4905580;28;45577;-58
2023/03/10 06:15:39;;;;;;;0.40;0.30;;;14.00;47.10;;;;;;4909336;28;45320;-56
2023/03/10 06:18:04;;;;;;;0.30;0.30;;;14.00;47.20;;;;;;4905860;28;45146;-57
2023/03/10 06:20:30;;;;;;;0.90;0.30;;;14.00;47.20;;;;;;4877843;28;45415;-58
2023/03/10 06:22:55;;;;;;;0.30;0.25;;;14.00;47.20;;;;;;4905712;28;46431;-58
2023/03/10 06:25:21;;;;;;;0.30;0.30;;;14.00;47.20;;;;;;4908237;28;45756;-58
2023/03/10 06:27:46;;;;;;;0.27;0.27;;;14.00;47.20;;;;;;4906151;28;45836;-56
2023/03/10 06:30:13;;;;;;;0.37;0.37;;;14.00;47.10;;;;;;4907999;28;45637;-56
2023/03/10 06:32:39;;;;;;;0.20;0.20;;;14.00;47.20;;;;;;4904024;28;45465;-57
2023/03/10 06:35:05;;;;;;;0.33;0.20;;;14.00;47.20;;;;;;4904420;28;45230;-58
2023/03/10 06:37:30;;;;;;;0.30;0.28;;;14.00;47.20;;;;;;4872191;28;45597;-58
2023/03/10 06:39:56;;;;;;;0.17;0.17;;;14.00;47.20;;;;;;4905715;28;46117;-57
2023/03/10 06:42:21;;;;;;;0.20;0.20;;;14.00;47.20;;;;;;4904012;28;45309;-58
2023/03/10 06:44:47;;;;;;;0.37;0.30;;;14.00;47.20;;;;;;4906654;28;44987;-59
2023/03/10 06:47:12;;;;;;;0.45;0.38;;;14.00;47.20;;;;;;4895103;28;45675;-58
2023/03/10 06:49:38;;;;;;;0.35;0.25;;;14.00;47.20;;;;;;4913471;28;45110;-58
2023/03/10 06:52:04;;;;;;;0.30;0.20;;;14.00;47.10;;;;;;4909601;28;45565;-58
2023/03/10 06:54:29;;;;;;;0.20;0.20;;;14.00;47.20;;;;;;4908651;28;45172;-56
2023/03/10 06:56:55;;;;;;;0.30;0.30;;;14.00;47.20;;;;;;4909805;28;44710;-59
2023/03/10 06:59:21;;;;;;;0.40;0.20;;;14.00;47.20;;;;;;4913308;28;45490;-56
2023/03/10 07:01:47;;;;;;;0.25;0.20;;;14.00;47.20;;;;;;4909363;28;46196;-56
2023/03/10 07:04:13;;;;;;;0.20;0.20;;;14.00;47.20;;;;;;4907674;28;45411;-55
2023/03/10 07:06:38;;;;;;;0.20;0.20;;;14.10;47.20;;;;;;4911551;28;45406;-58
2023/03/10 07:09:04;;;;;;;0.43;0.30;;;14.00;47.20;;;;;;4893936;28;45524;-58
2023/03/10 07:11:29;;;;;;;0.30;0.30;;;14.10;47.20;;;;;;4910391;28;46345;-57
2023/03/10 07:13:55;;;;;;;0.30;0.25;;;14.10;47.20;;;;;;4908924;28;45279;-55
2023/03/10 07:16:21;;;;;;;0.40;0.30;;;14.10;47.20;;;;;;4910915;28;45153;-55
2023/03/10 07:18:46;;;;;;;0.10;0.10;;;14.10;47.10;;;;;;4909853;28;45554;-58
2023/03/10 07:21:14;;;;;;;0.50;0.28;;;14.10;47.10;;;;;;4908701;28;46818;-56
2023/03/10 07:23:40;;;;;;;0.28;0.28;;;14.10;47.10;;;;;;4908432;28;45780;-57
2023/03/10 07:26:07;;;;;;;0.20;0.20;;;14.10;47.10;;;;;;4909765;28;44802;-56
2023/03/10 07:28:34;;;;;;;0.60;0.30;;;14.10;47.20;;;;;;4909786;28;45184;-58
2023/03/10 07:31:08;;;;;;;0.28;0.28;;;14.10;47.10;;;;;;4906942;28;45431;-56
2023/03/10 07:33:34;;;;;;;0.70;0.32;;;14.10;47.10;;;;;;4908603;28;45244;-58
2023/03/10 07:36:06;;;;;;;0.40;0.30;;;14.10;47.20;;;;;;4907294;28;45457;-59
2023/03/10 07:38:32;;;;;;;0.50;0.30;;;14.10;47.10;;;;;;4912368;28;46623;-57
2023/03/10 07:40:57;;;;;;;0.30;0.30;;;14.10;47.20;;;;;;4906821;28;47063;-57
2023/03/10 07:43:23;;;;;;;0.30;0.30;;;14.10;47.20;;;;;;4909064;28;44800;-57
2023/03/10 07:45:48;;;;;;;0.30;0.20;;;14.10;47.70;;;;;;4908612;28;45889;-57
2023/03/10 07:48:14;;;;;;;0.23;0.20;;;14.10;47.10;;;;;;4912467;28;45140;-58
2023/03/10 07:50:39;;;;;;;0.20;0.20;;;14.10;47.10;;;;;;4908575;28;47076;-57
2023/03/10 07:53:05;;;;;;;0.20;0.20;;;14.10;47.20;;;;;;4907154;28;45566;-59
2023/03/10 07:55:30;;;;;;;0.30;0.20;;;14.10;47.20;;;;;;4907769;28;45274;-58
2023/03/10 07:57:58;;;;;;;0.40;0.30;;;14.10;47.20;;;;;;4892492;28;45539;-58
2023/03/10 08:00:24;;;;;;;0.23;0.23;;;14.10;47.20;;;;;;4909307;28;46631;-58
2023/03/10 08:02:49;;;;;;;0.20;0.20;;;14.10;47.20;;;;;;4909304;28;45352;-58
2023/03/10 08:05:15;;;;;;;0.32;0.20;;;14.10;47.20;;;;;;4907479;28;45511;-58
2023/03/10 08:07:42;;;;;;;0.40;0.40;;;14.10;47.20;;;;;;4907855;28;44848;-55
2023/03/10 08:10:08;;;;;;;0.20;0.20;;;14.20;47.20;;;;;;4907316;28;45626;-57
2023/03/10 08:12:34;;;;;;;0.25;0.20;;;14.10;47.20;;;;;;4895058;28;45191;-56
2023/03/10 08:14:59;;;;;;;0.20;0.20;;;14.20;47.30;;;;;;4905734;28;45165;-58
2023/03/10 08:17:29;;;;;;;0.20;0.20;;;14.20;47.20;;;;;;4912001;28;44847;-56
2023/03/10 08:19:56;;;;;;;0.20;0.20;;;14.20;47.20;;;;;;4906531;28;47521;-60
2023/03/10 08:22:22;;;;;;;0.30;0.20;;;14.20;47.20;;;;;;4907391;28;45409;-55
2023/03/10 08:24:47;;;;;;;0.17;0.17;;;14.20;47.20;;;;;;4908208;28;45095;-59
2023/03/10 08:27:13;;;;;;;0.30;0.20;;;14.20;47.10;;;;;;4907443;28;45683;-58
2023/03/10 08:29:38;;;;;;;0.13;0.13;;;14.20;47.10;;;;;;4908347;28;46353;-58
2023/03/10 08:32:04;;;;;;;0.20;0.17;;;14.20;47.10;;;;;;4908931;28;45231;-58
2023/03/10 08:34:33;;;;;;;0.50;0.20;;;14.20;47.30;;;;;;4908980;28;45702;-54
2023/03/10 08:36:59;;;;;;;0.10;0.10;;;14.20;47.30;;;;;;4889993;28;45512;-53
2023/03/10 08:39:25;;;;;;;0.10;0.10;;;14.20;47.30;;;;;;4908383;28;46956;-54
2023/03/10 08:41:51;;;;;;;0.30;0.20;;;14.20;47.20;;;;;;4906712;28;44909;-56
2023/03/10 08:44:17;;;;;;;0.30;0.20;;;14.20;47.10;;;;;;4909799;28;45441;-56
2023/03/10 08:46:46;;;;;;;0.10;0.10;;;14.20;47.10;;;;;;4909175;28;45311;-57
2023/03/10 08:49:13;;;;;;;0.20;0.20;;;14.30;47.10;;;;;;4905873;28;46111;-57
2023/03/10 08:51:38;;;;;;;0.20;0.20;;;14.20;47.10;;;;;;4893260;28;45505;-56
2023/03/10 08:54:04;;;;;;;0.13;0.13;;;14.30;47.10;;;;;;4906418;28;45334;-57
2023/03/10 08:56:30;;;;;;;0.25;0.20;;;14.30;47.10;;;;;;4908483;28;46765;-56
2023/03/10 08:58:57;;;;;;;0.20;0.20;;;14.30;47.10;;;;;;4892753;28;46769;-58
2023/03/10 09:01:24;;;;;;;0.20;0.10;;;14.30;47.10;;;;;;4891271;28;45457;-57
2023/03/10 09:03:49;;;;;;;0.30;0.30;;;14.30;47.00;;;;;;4904796;28;45525;-55
2023/03/10 09:06:15;;;;;;;0.35;0.20;;;14.30;47.00;;;;;;4906628;28;45509;-58
2023/03/10 09:08:40;;;;;;;0.20;0.20;;;14.30;47.00;;;;;;4906450;28;45708;-57
2023/03/10 09:11:07;;;;;;;0.10;0.10;;;14.30;47.10;;;;;;4905008;28;45627;-58
2023/03/10 09:13:32;;;;;;;0.20;0.20;;;14.30;47.10;;;;;;4907489;28;44757;-57
2023/03/10 09:15:58;;;;;;;0.20;0.20;;;14.30;47.10;;;;;;4909372;28;45391;-59
2023/03/10 09:18:23;;;;;;;0.10;0.10;;;14.30;47.10;;;;;;4906937;28;47058;-59
2023/03/10 09:20:49;;;;;;;0.20;0.20;;;14.30;47.10;;;;;;4907941;28;45328;-57
2023/03/10 09:23:15;;;;;;;0.30;0.20;;;14.30;47.10;;;;;;4923827;28;45270;-59
2023/03/10 09:25:40;;;;;;;0.20;0.20;;;14.30;47.10;;;;;;4893152;28;45228;-58
2023/03/10 09:28:07;;;;;;;0.30;0.20;;;14.30;47.10;;;;;;4907607;28;46740;-58
2023/03/10 09:30:36;;;;;;;0.22;0.20;;;14.30;47.10;;;;;;4907273;28;45296;-56
2023/03/10 09:33:22;;;;;;;0.13;0.13;;;14.30;47.10;;;;;;4905719;28;45062;-58
2023/03/10 09:35:48;;;;;;;0.20;0.20;;;14.30;47.00;;;;;;4903350;28;45445;-57
2023/03/10 09:38:14;;;;;;;0.20;0.20;;;14.30;47.00;;;;;;4907689;28;45204;-56
2023/03/10 09:40:49;;;;;;;0.35;0.30;;;14.40;47.10;;;;;;4906413;28;45553;-58
2023/03/10 09:43:17;;;;;;;0.20;0.20;;;14.40;47.00;;;;;;4906349;28;45545;-59
2023/03/10 09:45:53;;;;;;;0.40;0.30;;;14.30;47.00;;;;;;4909473;28;45342;-57
2023/03/10 09:48:43;;;;;;;0.32;0.20;;;14.40;47.10;;;;;;4909173;28;45970;-55
2023/03/10 09:51:29;;;;;;;0.20;0.13;;;14.40;47.10;;;;;;4924240;28;45696;-58
2023/03/10 09:54:01;;;;;;;0.30;0.20;;;14.40;47.10;;;;;;4907689;28;45130;-59
2023/03/10 09:56:34;;;;;;;0.30;0.20;;;14.40;47.10;;;;;;4908175;28;45581;-57
2023/03/10 09:59:31;;;;;;;0.20;0.20;;;14.40;47.00;;;;;;4908198;28;46435;-59
2023/03/10 10:01:56;;;;;;;0.28;0.20;;;14.40;47.00;;;;;;4905589;28;45206;-56
2023/03/10 10:04:26;;;;;;;0.30;0.30;;;14.40;47.00;;;;;;4905637;28;45526;-57
2023/03/10 10:06:52;;;;;;;0.40;0.30;;;14.40;47.00;;;;;;4922645;28;45596;-57
2023/03/10 10:09:44;;;;;;;0.20;0.20;;;14.40;47.00;;;;;;4906677;28;47461;-60
2023/03/10 10:12:15;;;;;;;0.13;0.10;;;14.50;47.10;;;;;;4906783;28;45590;-58
2023/03/10 10:14:40;;;;;;;0.20;0.10;;;14.50;47.00;;;;;;4907175;28;45730;-58
2023/03/10 10:17:43;;;;;;;0.20;0.20;;;14.50;47.10;;;;;;4906244;28;45689;-58
2023/03/10 10:20:20;;;;;;;0.20;0.20;;;14.50;47.00;;;;;;4905919;28;45960;-58
2023/03/10 10:22:46;;;;;;;0.20;0.20;;;14.50;47.00;;;;;;4925347;28;45098;-57
2023/03/10 10:25:18;;;;;;;0.20;0.10;;;14.50;47.10;;;;;;4912900;28;45812;-57
2023/03/10 10:27:44;;;;;;;0.20;0.20;;;14.50;47.10;;;;;;4909822;28;45193;-58
2023/03/10 10:30:26;;;;;;;0.38;0.20;;;14.50;47.10;;;;;;4912804;28;46767;-56
2023/03/10 10:33:05;;;;;;;0.30;0.20;;;14.50;47.20;;;;;;4910942;28;45615;-58
2023/03/10 10:35:33;;;;;;;0.15;0.15;;;14.50;47.10;;;;;;4906417;28;45302;-57
2023/03/10 10:38:04;;;;;;;0.25;0.25;;;14.50;47.20;;;;;;4910299;28;45436;-58
2023/03/10 10:40:32;;;;;;;0.17;0.17;;;14.50;47.20;;;;;;4908955;28;45924;-59
2023/03/10 10:43:04;;;;;;;0.30;0.30;;;14.50;47.20;;;;;;4908154;28;45221;-56
2023/03/10 10:45:36;;;;;;;0.30;0.20;;;14.50;47.20;;;;;;4909364;28;45045;-59
2023/03/10 10:48:02;;;;;;;0.20;0.13;;;14.50;47.20;;;;;;4914089;28;45579;-61
2023/03/10 10:50:37;;;;;;;0.30;0.30;;;14.50;47.20;;;;;;4909423;28;46050;-58
2023/03/10 10:53:15;;;;;;;0.40;0.30;;;14.50;47.20;;;;;;4908453;28;45542;-58
2023/03/10 10:55:44;;;;;;;0.10;0.10;;;14.50;47.20;;;;;;4910675;28;45227;-58
2023/03/10 10:58:38;;;;;;;0.30;0.30;;;14.50;47.30;;;;;;4864592;28;45190;-56
2023/03/10 11:01:05;;;;;;;0.30;0.20;;;14.50;47.20;;;;;;4922882;28;45608;-57
2023/03/10 11:03:39;;;;;;;0.20;0.20;;;14.50;47.30;;;;;;4911718;28;45705;-58
2023/03/10 11:06:23;;;;;;;0.20;0.20;;;14.50;47.20;;;;;;4924654;28;45612;-55
2023/03/10 11:08:51;;;;;;;0.20;0.20;;;14.50;47.20;;;;;;4898912;28;45328;-56
2023/03/10 11:11:38;;;;;;;0.32;0.30;;;14.60;47.20;;;;;;4910589;28;45588;-56
2023/03/10 11:14:10;;;;;;;0.20;0.20;;;14.60;47.20;;;;;;4910564;28;44878;-58
2023/03/10 11:17:13;;;;;;;0.20;0.20;;;14.50;47.10;;;;;;4914253;28;44862;-55
2023/03/10 11:19:55;;;;;;;0.20;0.20;;;14.60;47.20;;;;;;4912972;28;45237;-57
2023/03/10 11:22:27;;;;;;;0.10;0.10;;;14.60;47.20;;;;;;4912240;28;45378;-56
2023/03/10 11:25:14;;;;;;;0.20;0.20;;;14.60;47.20;;;;;;4898011;28;45383;-57
2023/03/10 11:27:57;;;;;;;0.20;0.20;;;14.60;47.20;;;;;;4899648;28;45608;-55
2023/03/10 11:30:30;;;;;;;0.22;0.22;;;14.60;47.20;;;;;;4908565;28;46110;-56
2023/03/10 11:32:58;;;;;;;0.20;0.20;;;14.60;47.20;;;;;;4909337;28;45174;-58
2023/03/10 11:36:20;;;;;;;0.20;0.15;;;14.60;47.20;;;;;;4911062;28;47631;-55
2023/03/10 11:38:46;;;;;;;0.20;0.20;;;14.60;47.20;;;;;;4838504;29;44987;-59
2023/03/10 11:41:14;;;;;;;0.10;0.10;;;14.60;47.10;;;;;;4889172;28;45306;-58
2023/03/10 11:43:56;;;;;;;0.10;0.10;;;14.60;47.10;;;;;;4911026;28;45426;-59
2023/03/10 11:46:28;;;;;;;0.50;0.28;;;14.60;47.10;;;;;;4910388;28;45235;-59
2023/03/10 11:49:09;;;;;;;0.17;0.17;;;14.70;47.10;;;;;;4909671;28;45431;-59
2023/03/10 11:51:54;;;;;;;0.20;0.20;;;14.70;47.10;;;;;;4908004;28;45640;-59
2023/03/10 11:54:40;;;;;;;0.20;0.20;;;14.70;47.20;;;;;;4908296;28;45296;-55
2023/03/10 11:57:14;;;;;;;0.17;0.13;;;14.70;47.20;;;;;;4926165;28;45465;-57
2023/03/10 11:59:51;;;;;;;0.20;0.20;;;14.60;47.10;;;;;;4909534;28;45399;-53
2023/03/10 12:02:20;;;;;;;0.30;0.30;;;14.70;47.10;;;;;;4907137;28;46709;-55
2023/03/10 12:04:50;;;;;;;0.20;0.20;;;14.70;47.20;;;;;;4909027;28;45414;-55
2023/03/10 12:07:26;;;;;;;0.20;0.20;;;14.70;47.10;;;;;;4890959;28;45144;-56
2023/03/10 12:09:58;;;;;;;0.20;0.20;;;14.70;47.10;;;;;;4908692;28;45263;-56
2023/03/10 12:12:35;;;;;;;0.20;0.20;;;14.70;47.10;;;;;;4892129;28;45181;-55
2023/03/10 12:15:04;;;;;;;0.20;0.20;;;14.70;47.10;;;;;;4912431;28;46120;-58
2023/03/10 12:17:30;;;;;;;0.10;0.10;;;14.70;47.10;;;;;;4880417;28;44801;-58
2023/03/10 12:20:08;;;;;;;0.10;0.10;;;14.70;47.10;;;;;;4894037;28;45314;-57
2023/03/10 12:22:41;;;;;;;0.20;0.20;;;14.70;47.10;;;;;;4909463;28;45143;-54
2023/03/10 12:25:26;;;;;;;0.25;0.25;;;14.70;47.70;;;;;;4910838;28;45555;-59
2023/03/10 12:28:23;;;;;;;0.43;0.30;;;14.70;47.20;;;;;;4906268;28;45545;-58
2023/03/10 12:30:58;;;;;;;0.20;0.20;;;14.70;47.10;;;;;;4908338;28;45352;-59
2023/03/10 12:33:29;;;;;;;0.23;0.20;;;14.80;47.20;;;;;;4906650;28;46058;-59
2023/03/10 12:36:05;;;;;;;0.30;0.30;;;14.80;47.20;;;;;;4910181;28;46197;-56
2023/03/10 12:38:43;;;;;;;0.20;0.20;;;14.80;47.20;;;;;;4895923;28;45314;-58
2023/03/10 12:41:09;;;;;;;0.40;0.30;;;14.80;47.20;;;;;;4906041;28;47357;-57
2023/03/10 12:43:55;;;;;;;0.23;0.20;;;14.80;47.20;;;;;;4894149;28;45182;-55
2023/03/10 12:46:45;;;;;;;0.28;0.20;;;14.70;47.20;;;;;;4908515;28;45569;-57
2023/03/10 12:49:20;;;;;;;0.20;0.20;;;14.80;47.20;;;;;;4911411;28;45589;-58
2023/03/10 12:51:48;;;;;;;0.20;0.20;;;14.80;47.20;;;;;;4908521;28;45403;-55
2023/03/10 12:54:20;;;;;;;0.20;0.20;;;14.80;47.20;;;;;;4911063;28;44908;-55
2023/03/10 12:56:51;;;;;;;0.20;0.20;;;14.80;47.20;;;;;;4908246;28;46052;-55
2023/03/10 12:59:20;;;;;;;0.10;0.10;;;14.80;47.20;;;;;;4888431;28;45004;-55
2023/03/10 13:01:46;;;;;;;0.20;0.17;;;14.80;47.20;;;;;;4892689;28;46287;-57
2023/03/10 13:04:15;;;;;;;0.10;0.10;;;14.80;47.20;;;;;;4891694;28;44945;-57
2023/03/10 13:06:40;;;;;;;0.20;0.17;;;14.80;47.20;;;;;;4908406;28;45506;-57
2023/03/10 13:09:15;;;;;;;0.30;0.20;;;14.80;47.30;;;;;;4910146;28;45575;-56
2023/03/10 13:11:48;;;;;;;0.20;0.20;;;14.80;47.30;;;;;;4908544;28;44758;-61
2023/03/10 13:14:21;;;;;;;0.20;0.20;;;14.80;47.30;;;;;;4908762;28;45554;-57
2023/03/10 13:16:53;;;;;;;0.20;0.13;;;14.80;47.30;;;;;;4910906;28;47936;-55
2023/03/10 13:19:20;;;;;;;0.10;0.10;;;14.80;47.30;;;;;;4907267;28;45997;-57
2023/03/10 13:21:46;;;;;;;0.10;0.10;;;14.80;47.20;;;;;;4909530;28;45710;-57
2023/03/10 13:24:39;;;;;;;0.20;0.10;;;14.90;47.30;;;;;;4893481;28;45207;-59
2023/03/10 13:27:11;;;;;;;0.20;0.20;;;14.90;47.20;;;;;;4907149;28;45251;-58
2023/03/10 13:29:37;;;;;;;0.20;0.20;;;14.90;47.30;;;;;;4909646;28;44661;-58
2023/03/10 13:32:03;;;;;;;0.15;0.15;;;14.90;47.30;;;;;;4910062;28;45441;-58
2023/03/10 13:34:29;;;;;;;0.20;0.20;;;14.90;47.30;;;;;;4908068;28;46474;-59
2023/03/10 13:37:06;;;;;;;0.30;0.22;;;14.90;47.30;;;;;;4904308;28;45891;-56
2023/03/10 13:39:31;;;;;;;0.23;0.17;;;14.90;47.30;;;;;;4910871;28;45060;-60
2023/03/10 13:41:58;;;;;;;0.20;0.20;;;14.80;47.30;;;;;;4908887;28;44709;-57
2023/03/10 13:44:36;;;;;;;0.20;0.20;;;14.90;47.30;;;;;;4910027;28;46062;-57
2023/03/10 13:47:03;;;;;;;0.20;0.20;;;14.90;47.30;;;;;;4894171;28;46693;-58
2023/03/10 13:49:33;;;;;;;0.10;0.10;;;14.90;47.30;;;;;;4909024;28;44760;-58
2023/03/10 13:52:00;;;;;;;0.23;0.23;;;14.90;47.30;;;;;;4892051;28;45465;-55
2023/03/10 13:54:33;;;;;;;0.28;0.20;;;14.90;47.30;;;;;;4906363;28;46168;-57
2023/03/10 13:57:24;;;;;;;0.20;0.20;;;14.90;47.30;;;;;;4910993;28;46465;-55
2023/03/10 13:59:50;;;;;;;0.35;0.20;;;14.90;47.30;;;;;;4860671;28;45227;-56
2023/03/10 14:02:31;;;;;;;0.50;0.30;;;14.90;47.30;;;;;;4890912;28;45551;-57
2023/03/10 14:04:57;;;;;;;0.30;0.20;;;14.90;47.30;;;;;;4891359;28;45203;-58
2023/03/10 14:07:22;;;;;;;0.43;0.20;;;14.90;47.30;;;;;;4898053;28;45398;-58
2023/03/10 14:10:09;;;;;;;0.20;0.20;;;14.90;47.30;;;;;;4899348;28;45775;-57
2023/03/10 14:12:51;;;;;;;0.30;0.30;;;14.90;47.30;;;;;;4906433;28;44891;-59
2023/03/10 14:15:22;;;;;;;0.25;0.20;;;14.90;47.30;;;;;;4905685;28;44815;-58
2023/03/10 14:18:07;;;;;;;0.20;0.20;;;14.90;47.30;;;;;;4909668;28;46508;-57
2023/03/10 14:20:40;;;;;;;0.10;0.10;;;14.90;47.30;;;;;;4904763;28;45226;-58
2023/03/10 14:23:18;;;;;;;0.57;0.30;;;15.00;47.30;;;;;;4898381;28;44755;-58
2023/03/10 14:25:44;;;;;;;0.20;0.20;;;14.90;47.30;;;;;;4904914;28;46352;-58
2023/03/10 14:28:26;;;;;;;0.25;0.20;;;15.00;47.30;;;;;;4903977;28;45249;-58
2023/03/10 14:30:51;;;;;;;0.10;0.10;;;15.00;47.90;;;;;;4909450;28;45231;-59
2023/03/10 14:33:17;;;;;;;0.10;0.10;;;15.00;47.30;;;;;;4905179;28;45619;-58
2023/03/10 14:35:44;;;;;;;0.20;0.20;;;15.00;47.30;;;;;;4897427;28;45585;-57
2023/03/10 14:38:10;;;;;;;0.38;0.20;;;15.00;47.30;;;;;;4903251;28;45619;-57
2023/03/10 14:40:41;;;;;;;0.30;0.20;;;15.00;47.30;;;;;;4903794;28;45307;-60
2023/03/10 14:43:09;;;;;;;0.30;0.20;;;15.00;47.30;;;;;;4922512;28;44844;-57
2023/03/10 14:45:35;;;;;;;0.20;0.20;;;15.00;47.20;;;;;;4887058;28;45512;-58
2023/03/10 14:48:11;;;;;;;0.20;0.20;;;15.00;47.30;;;;;;4891097;28;45569;-59
2023/03/10 14:50:36;;;;;;;0.22;0.20;;;15.00;47.30;;;;;;4894266;28;45686;-59
2023/03/10 14:53:02;;;;;;;0.25;0.20;;;15.00;47.30;;;;;;4888982;28;45318;-58
2023/03/10 14:55:27;;;;;;;0.27;0.20;;;15.00;47.30;;;;;;4901642;28;44729;-58
2023/03/10 14:58:00;;;;;;;0.20;0.20;;;15.00;47.30;;;;;;4915555;28;46282;-58
2023/03/10 15:00:25;;;;;;;0.30;0.20;;;15.00;47.30;;;;;;4887584;28;46206;-56
2023/03/10 15:02:51;;;;;;;0.20;0.20;;;15.00;47.30;;;;;;4901384;28;45647;-58
2023/03/10 15:05:18;;;;;;;0.30;0.20;;;15.00;47.30;;;;;;4886254;28;45995;-57
2023/03/10 15:07:44;;;;;;;0.30;0.15;;;15.00;47.30;;;;;;4906115;28;45597;-61
2023/03/10 15:10:11;;;;;;;0.10;0.10;;;15.00;47.30;;;;;;4903152;28;45280;-58
2023/03/10 15:12:36;;;;;;;0.10;0.10;;;15.00;47.30;;;;;;4904479;28;45187;-57
2023/03/10 15:15:02;;;;;;;0.10;0.10;;;15.00;47.30;;;;;;4911157;28;45512;-57
2023/03/10 15:17:28;;;;;;;0.60;0.20;;;15.00;47.30;;;;;;4905927;28;46223;-57
2023/03/10 15:19:53;;;;;;;0.37;0.20;;;15.00;47.40;;;;;;4904234;28;45343;-55
2023/03/10 15:22:19;;;;;;;0.10;0.10;;;15.00;47.40;;;;;;4903884;28;44696;-57
2023/03/10 15:24:44;;;;;;;0.22;0.20;;;15.00;47.40;;;;;;4911351;28;45213;-54
2023/03/10 15:27:11;;;;;;;0.10;0.10;;;15.00;47.40;;;;;;4920688;28;47309;-59
2023/03/10 15:29:36;;;;;;;0.40;0.20;;;15.00;47.40;;;;;;4871669;28;45515;-57
2023/03/10 15:32:02;;;;;;;0.20;0.20;;;14.90;47.50;;;;;;4900838;28;45764;-58
2023/03/10 15:34:28;;;;;;;0.17;0.17;;;14.90;47.50;;;;;;4907586;28;45366;-56
2023/03/10 15:36:55;;;;;;;0.20;0.20;;;14.90;47.60;;;;;;4906030;28;45528;-54
2023/03/10 15:39:21;;;;;;;0.20;0.20;;;14.90;47.60;;;;;;4903724;28;45137;-54
2023/03/10 15:41:46;;;;;;;0.30;0.15;;;15.00;47.60;;;;;;4908450;28;45055;-56
2023/03/10 15:44:12;;;;;;;0.10;0.10;;;15.00;47.50;;;;;;4910091;28;45186;-55
2023/03/10 15:46:38;;;;;;;0.40;0.20;;;15.00;47.50;;;;;;4905630;28;46639;-57
2023/03/10 15:49:03;;;;;;;0.10;0.10;;;15.00;47.50;;;;;;4905331;28;45243;-58
2023/03/10 15:51:29;;;;;;;0.20;0.13;;;15.00;47.50;;;;;;4904925;28;45291;-58
2023/03/10 15:53:54;;;;;;;0.20;0.20;;;15.00;47.60;;;;;;4907309;28;45403;-60
2023/03/10 15:56:20;;;;;;;0.20;0.20;;;15.00;47.50;;;;;;4908221;28;45472;-58
2023/03/10 15:58:45;;;;;;;0.20;0.20;;;15.00;47.60;;;;;;4904194;28;44738;-55
2023/03/10 16:01:16;;;;;;;0.20;0.20;;;15.00;47.60;;;;;;4902322;28;45668;-58
2023/03/10 16:03:42;;;;;;;0.20;0.20;;;15.00;47.60;;;;;;4907643;28;46028;-57
2023/03/10 16:06:09;;;;;;;0.10;0.10;;;15.00;47.50;;;;;;4908793;28;46312;-58
2023/03/10 16:08:38;;;;;;;0.25;0.20;;;15.00;47.60;;;;;;4915818;28;45797;-58
2023/03/10 16:11:05;;;;;;;0.10;0.10;;;15.00;47.60;;;;;;4884139;28;45755;-60
2023/03/10 16:13:30;;;;;;;0.20;0.20;;;15.00;47.60;;;;;;4891397;28;45688;-58
2023/03/10 16:15:56;;;;;;;0.22;0.17;;;15.00;47.60;;;;;;4909654;28;46561;-56
2023/03/10 16:18:23;;;;;;;0.20;0.20;;;15.00;47.60;;;;;;4920627;28;45210;-59
2023/03/10 16:21:06;;;;;;;0.20;0.20;;;15.00;47.60;;;;;;4900793;28;45416;-59
2023/03/10 16:23:32;;;;;;;0.30;0.30;;;15.00;47.60;;;;;;4904319;28;45719;-56
2023/03/10 16:26:13;;;;;;;0.20;0.20;;;15.00;47.70;;;;;;4908817;28;45408;-58
2023/03/10 16:28:44;;;;;;;0.20;0.20;;;15.00;47.60;;;;;;4904116;28;45462;-58
2023/03/10 16:31:10;;;;;;;0.20;0.20;;;15.00;47.70;;;;;;4891683;28;45543;-55
2023/03/10 16:33:36;;;;;;;0.30;0.30;;;15.00;47.70;;;;;;4905765;28;45331;-55
2023/03/10 16:36:03;;;;;;;0.20;0.20;;;15.00;47.70;;;;;;4908041;28;45563;-58
2023/03/10 16:38:28;;;;;;;0.45;0.28;;;15.00;47.60;;;;;;4917399;28;45281;-57
2023/03/10 16:40:56;;;;;;;0.20;0.20;;;15.00;47.60;;;;;;4897446;28;45418;-60
2023/03/10 16:43:21;;;;;;;0.32;0.20;;;15.00;47.70;;;;;;4901538;28;45424;-59
2023/03/10 16:45:47;;;;;;;0.20;0.20;;;15.00;47.70;;;;;;4907953;28;45237;-59
2023/03/10 16:48:14;;;;;;;0.13;0.13;;;14.90;47.70;;;;;;4904221;28;46742;-59
2023/03/10 16:50:39;;;;;;;0.20;0.20;;;15.00;47.70;;;;;;4900787;28;45180;-59
2023/03/10 16:53:05;;;;;;;0.20;0.20;;;15.00;47.70;;;;;;4903493;28;44838;-58
2023/03/10 16:55:30;;;;;;;0.20;0.20;;;14.90;47.70;;;;;;4904411;28;45778;-57
2023/03/10 16:57:56;;;;;;;0.20;0.20;;;15.00;47.80;;;;;;4888790;28;45584;-57
2023/03/10 17:00:22;;;;;;;0.20;0.20;;;14.90;47.70;;;;;;4902745;28;45502;-57